Time;durP1;ratioP1;P1;durP2;ratioP2;P2;SDS_P1;SDS_P2;PMS_P1;PMS_P2;Temp;Humidity;BMP_temperature;BMP_pressure;BME280_temperature;BME280_humidity;BME280_pressure;Samples;Min_cycle;Max_cycle;Signal;HPM_P1;HPM_P2
2022/02/03 00:00:04;;;;;;;54.95;48.95;;;;;;;;;;4970370;28;20018;-80
2022/02/03 00:02:42;;;;;;;54.80;48.80;;;;;;;;;;4973449;28;20404;-78
2022/02/03 00:05:14;;;;;;;54.90;48.67;;;;;;;;;;4979488;28;20023;-80
2022/02/03 00:25:47;;;;;;;53.92;48.20;;;;;;;;;;4993559;28;20049;-79
2022/02/03 00:33:33;;;;;;;63.97;50.75;;;;;;;;;;4984037;28;20010;-78
2022/02/03 00:49:05;;;;;;;54.03;48.33;;;;;;;;;;4987116;28;20491;-80
2022/02/03 00:51:31;;;;;;;65.90;49.92;;;;;;;;;;4974234;28;20385;-79
2022/02/03 00:53:57;;;;;;;54.20;48.88;;;;;;;;;;4973596;28;20086;-79
2022/02/03 00:56:25;;;;;;;54.10;48.40;;;;;;;;;;4978031;28;20037;-79
2022/02/03 00:58:52;;;;;;;53.35;48.05;;;;;;;;;;4976020;28;20367;-79
2022/02/03 01:01:19;;;;;;;53.10;48.03;;;;;;;;;;4974127;28;20552;-79
2022/02/03 01:03:44;;;;;;;;;;;;;;;;;;4974157;28;20023;-81
2022/02/03 01:06:12;;;;;;;54.63;49.03;;;;;;;;;;4991871;28;19916;-79
2022/02/03 01:08:41;;;;;;;54.05;48.33;;;;;;;;;;4983871;28;20057;-80
2022/02/03 01:11:12;;;;;;;59.15;49.00;;;;;;;;;;4992488;28;20022;-78
2022/02/03 01:13:48;;;;;;;52.65;47.58;;;;;;;;;;4979983;28;20016;-79
2022/02/03 01:16:43;;;;;;;53.92;48.17;;;;;;;;;;4984439;28;20105;-79
2022/02/03 01:33:29;;;;;;;56.28;50.15;;;;;;;;;;4982546;28;20118;-77
2022/02/03 01:43:53;;;;;;;57.00;49.08;;;;;;;;;;4998325;28;20029;-77
2022/02/03 01:46:27;;;;;;;53.60;47.90;;;;;;;;;;4998005;28;20022;-76
2022/02/03 01:49:11;;;;;;;54.15;48.40;;;;;;;;;;5006312;28;20007;-77
2022/02/03 01:51:49;;;;;;;54.25;48.58;;;;;;;;;;5010235;28;20029;-77
2022/02/03 01:54:16;;;;;;;52.88;47.97;;;;;;;;;;4993447;28;20034;-77
2022/02/03 01:56:49;;;;;;;53.67;47.90;;;;;;;;;;4999158;28;20011;-76
2022/02/03 01:59:34;;;;;;;53.88;48.33;;;;;;;;;;5005061;28;20050;-77
2022/02/03 02:02:01;;;;;;;55.30;49.00;;;;;;;;;;5003369;28;20007;-77
2022/02/03 02:04:38;;;;;;;56.53;49.67;;;;;;;;;;4996136;28;20019;-77
2022/02/03 02:07:03;;;;;;;57.78;50.80;;;;;;;;;;5002983;28;20014;-77
2022/02/03 02:10:01;;;;;;;55.45;49.90;;;;;;;;;;4999851;28;20019;-76
2022/02/03 02:12:38;;;;;;;56.33;49.90;;;;;;;;;;4995910;28;20145;-77
2022/02/03 02:39:48;;;;;;;55.33;48.80;;;;;;;;;;4976828;28;20033;-79
2022/02/03 02:45:13;;;;;;;54.42;48.33;;;;;;;;;;4949254;28;20065;-79
2022/02/03 02:47:58;;;;;;;57.10;51.05;;;;;;;;;;4982654;28;20038;-79
2022/02/03 02:50:37;;;;;;;55.70;49.35;;;;;;;;;;4975253;28;20030;-79
2022/02/03 02:53:15;;;;;;;58.30;50.45;;;;;;;;;;4985482;28;20028;-78
2022/02/03 02:58:44;;;;;;;54.67;48.95;;;;;;;;;;4977171;28;20069;-79
2022/02/03 03:02:00;;;;;;;56.38;50.17;;;;;;;;;;4974435;28;20089;-77
2022/02/03 03:31:49;;;;;;;53.85;48.50;;;;;;;;;;4975821;28;20023;-78
2022/02/03 03:36:51;;;;;;;65.03;52.38;;;;;;;;;;4980964;28;20621;-79
2022/02/03 03:39:25;;;;;;;57.75;49.80;;;;;;;;;;4983563;28;20022;-78
2022/02/03 03:41:51;;;;;;;62.50;49.50;;;;;;;;;;4981192;28;20015;-78
2022/02/03 03:44:18;;;;;;;62.17;52.47;;;;;;;;;;4970769;28;20022;-78
2022/02/03 03:46:43;;;;;;;;;;;;;;;;;;4979664;28;20071;-77
2022/02/03 03:49:28;;;;;;;63.88;52.30;;;;;;;;;;4988083;28;19906;-78
2022/02/03 03:52:00;;;;;;;56.58;50.60;;;;;;;;;;4965445;28;20077;-78
2022/02/03 03:54:42;;;;;;;57.17;51.22;;;;;;;;;;4970584;28;20369;-79
2022/02/03 03:57:34;;;;;;;56.60;50.47;;;;;;;;;;4994955;28;20681;-79
2022/02/03 04:00:17;;;;;;;57.95;50.35;;;;;;;;;;4972794;28;20489;-78
2022/02/03 04:31:40;;;;;;;68.68;52.55;;;;;;;;;;4987282;28;20428;-79
2022/02/03 04:40:23;;;;;;;61.33;53.65;;;;;;;;;;4996291;28;20053;-80
2022/02/03 04:50:46;;;;;;;58.67;52.67;;;;;;;;;;4975518;28;20113;-79
2022/02/03 04:52:44;;;;;;;58.88;52.55;;;;;;;;;;4992169;28;20021;-79
2022/02/03 05:03:39;;;;;;;74.35;57.15;;;;;;;;;;4971729;28;20030;-78
2022/02/03 05:09:11;;;;;;;68.60;54.75;;;;;;;;;;4979389;28;20022;-79
2022/02/03 05:23:16;;;;;;;71.75;56.45;;;;;;;;;;4975930;28;20089;-78
2022/02/03 05:34:55;;;;;;;62.13;55.50;;;;;;;;;;4981318;28;20070;-78
2022/02/03 05:43:06;;;;;;;72.80;55.72;;;;;;;;;;4988570;28;20033;-79
2022/02/03 05:51:43;;;;;;;66.57;55.28;;;;;;;;;;4985073;28;20021;-77
2022/02/03 05:55:04;;;;;;;64.40;53.63;;;;;;;;;;5009450;23;20043;-79
2022/02/03 06:05:51;;;;;;;61.53;54.70;;;;;;;;;;4978865;28;20033;-82
2022/02/03 06:08:31;;;;;;;60.70;54.10;;;;;;;;;;4986938;28;20023;-83
2022/02/03 06:14:06;;;;;;;66.47;55.90;;;;;;;;;;4982600;28;20046;-77
2022/02/03 06:16:40;;;;;;;61.20;54.58;;;;;;;;;;4983024;28;20099;-79
2022/02/03 06:21:54;;;;;;;61.95;54.58;;;;;;;;;;4986086;28;20484;-81
2022/02/03 06:24:34;;;;;;;65.20;56.65;;;;;;;;;;5003120;28;20030;-79
2022/02/03 06:29:35;;;;;;;60.45;54.05;;;;;;;;;;4985497;28;20114;-79
2022/02/03 06:32:00;;;;;;;67.13;55.28;;;;;;;;;;4983842;28;20019;-80
2022/02/03 06:34:25;;;;;;;65.00;55.80;;;;;;;;;;4982216;28;20080;-81
2022/02/03 06:36:51;;;;;;;68.80;55.77;;;;;;;;;;4983471;28;20038;-81
2022/02/03 06:39:17;;;;;;;62.72;55.95;;;;;;;;;;5004699;28;20533;-83
2022/02/03 06:41:42;;;;;;;63.47;55.42;;;;;;;;;;5008412;28;20023;-81
2022/02/03 06:44:08;;;;;;;67.35;56.90;;;;;;;;;;4997204;28;20018;-79
2022/02/03 06:46:35;;;;;;;69.60;55.70;;;;;;;;;;4999614;28;20019;-79
2022/02/03 06:49:14;;;;;;;68.72;56.40;;;;;;;;;;4980043;28;20158;-81
2022/02/03 06:51:48;;;;;;;61.80;55.00;;;;;;;;;;4983566;28;20082;-84
2022/02/03 06:54:21;;;;;;;69.00;56.33;;;;;;;;;;5002640;28;20022;-83
2022/02/03 06:56:55;;;;;;;70.85;56.45;;;;;;;;;;5006818;28;20015;-80
2022/02/03 06:59:27;;;;;;;62.75;55.05;;;;;;;;;;5002139;28;20023;-81
2022/02/03 07:01:53;;;;;;;71.78;58.15;;;;;;;;;;5003610;28;20023;-85
2022/02/03 07:04:23;;;;;;;70.57;57.07;;;;;;;;;;5007635;28;20045;-84
2022/02/03 07:06:48;;;;;;;69.18;58.25;;;;;;;;;;5010957;28;20042;-82
2022/02/03 07:09:13;;;;;;;70.77;59.63;;;;;;;;;;5012015;28;20015;-81
2022/02/03 07:11:43;;;;;;;75.43;59.17;;;;;;;;;;5009428;28;20058;-82
2022/02/03 07:14:10;;;;;;;90.15;61.67;;;;;;;;;;5006402;28;20042;-78
2022/02/03 07:16:43;;;;;;;82.55;61.03;;;;;;;;;;4987619;28;20027;-76
2022/02/03 07:19:08;;;;;;;77.85;59.50;;;;;;;;;;4996359;28;20022;-78
2022/02/03 07:22:21;;;;;;;74.93;58.57;;;;;;;;;;4993321;28;20496;-81
2022/02/03 07:24:51;;;;;;;119.07;65.97;;;;;;;;;;4991198;28;20047;-78
2022/02/03 07:27:16;;;;;;;88.72;61.20;;;;;;;;;;5006685;28;20029;-78
2022/02/03 07:29:41;;;;;;;67.73;57.77;;;;;;;;;;4990021;28;20023;-78
2022/02/03 07:32:07;;;;;;;76.20;58.27;;;;;;;;;;5010282;28;20026;-79
2022/02/03 07:34:32;;;;;;;80.90;59.30;;;;;;;;;;4987613;28;20516;-79
2022/02/03 07:36:58;;;;;;;78.60;58.97;;;;;;;;;;4998458;28;20019;-78
2022/02/03 07:39:23;;;;;;;86.78;60.78;;;;;;;;;;4985338;28;20125;-78
2022/02/03 07:41:49;;;;;;;69.47;57.07;;;;;;;;;;4992393;28;20113;-78
2022/02/03 07:44:15;;;;;;;78.70;59.67;;;;;;;;;;4999376;28;20039;-77
2022/02/03 07:46:41;;;;;;;87.88;61.65;;;;;;;;;;4980050;28;20037;-79
2022/02/03 07:49:06;;;;;;;74.70;58.67;;;;;;;;;;4981389;28;20027;-79
2022/02/03 07:51:31;;;;;;;75.10;58.83;;;;;;;;;;4987391;28;20018;-80
2022/02/03 07:53:56;;;;;;;88.27;59.87;;;;;;;;;;4978020;28;20045;-79
2022/02/03 07:56:21;;;;;;;82.10;60.17;;;;;;;;;;4991413;28;20026;-80
2022/02/03 07:58:47;;;;;;;79.10;60.33;;;;;;;;;;4995373;28;20102;-78
2022/02/03 08:01:13;;;;;;;82.53;60.47;;;;;;;;;;4976632;28;20440;-80
2022/02/03 08:03:41;;;;;;;94.65;62.45;;;;;;;;;;4991716;28;20026;-79
2022/02/03 08:06:10;;;;;;;108.72;67.30;;;;;;;;;;4987261;28;20027;-79
2022/02/03 08:08:40;;;;;;;90.35;61.92;;;;;;;;;;4974417;28;20019;-78
2022/02/03 08:11:10;;;;;;;84.30;61.13;;;;;;;;;;4972638;28;20034;-79
2022/02/03 08:13:46;;;;;;;96.07;63.47;;;;;;;;;;4976585;28;20030;-81
2022/02/03 08:16:19;;;;;;;88.23;60.70;;;;;;;;;;4997821;28;20018;-81
2022/02/03 08:18:49;;;;;;;85.10;61.13;;;;;;;;;;4992647;28;20333;-80
2022/02/03 08:21:16;;;;;;;91.05;62.08;;;;;;;;;;4994014;28;20022;-77
2022/02/03 08:26:58;;;;;;;100.05;64.13;;;;;;;;;;4938197;29;20102;-85
2022/02/03 08:32:11;;;;;;;112.18;64.65;;;;;;;;;;4979527;28;20027;-81
2022/02/03 08:34:46;;;;;;;101.63;64.38;;;;;;;;;;4998861;28;20544;-82
2022/02/03 08:37:13;;;;;;;99.10;63.30;;;;;;;;;;4986339;28;20023;-81
2022/02/03 08:39:51;;;;;;;94.70;64.10;;;;;;;;;;4989722;28;20023;-81
2022/02/03 08:42:16;;;;;;;111.30;66.15;;;;;;;;;;5001576;28;20027;-80
2022/02/03 08:44:41;;;;;;;94.97;61.83;;;;;;;;;;4996085;28;20029;-81
2022/02/03 08:47:06;;;;;;;100.50;63.27;;;;;;;;;;5004693;28;20145;-80
2022/02/03 08:49:34;;;;;;;92.97;64.17;;;;;;;;;;4986326;28;20050;-81
2022/02/03 08:52:05;;;;;;;83.20;60.92;;;;;;;;;;4984277;28;20028;-80
2022/02/03 08:54:34;;;;;;;96.20;62.78;;;;;;;;;;4989592;28;20031;-81
2022/02/03 08:57:08;;;;;;;89.63;62.22;;;;;;;;;;4984147;28;20030;-79
2022/02/03 09:40:38;;;;;;;91.03;62.55;;;;;;;;;;4979399;28;20364;-78
2022/02/03 09:51:58;;;;;;;89.40;62.55;;;;;;;;;;4993313;28;20078;-78
2022/02/03 09:59:19;;;;;;;78.70;62.23;;;;;;;;;;4996037;28;20042;-80
2022/02/03 10:01:55;;;;;;;75.75;59.40;;;;;;;;;;5012602;28;20019;-79
2022/02/03 10:04:43;;;;;;;82.93;60.63;;;;;;;;;;4987593;28;20074;-78
2022/02/03 10:07:16;;;;;;;85.28;62.00;;;;;;;;;;5011110;28;20094;-82
2022/02/03 10:09:42;;;;;;;77.07;61.08;;;;;;;;;;4995936;28;20061;-82
2022/02/03 10:12:07;;;;;;;78.53;61.45;;;;;;;;;;4996809;28;20023;-80
2022/02/03 10:14:34;;;;;;;91.30;63.60;;;;;;;;;;4990331;28;20030;-82
2022/02/03 10:17:00;;;;;;;;;;;;;;;;;;4992185;28;20019;-81
2022/02/03 10:19:31;;;;;;;85.50;63.97;;;;;;;;;;4995649;28;19918;-82
2022/02/03 10:21:56;;;;;;;94.75;65.30;;;;;;;;;;4995093;28;20042;-80
2022/02/03 10:24:24;;;;;;;103.87;67.87;;;;;;;;;;4988984;28;20007;-82
2022/02/03 10:26:52;;;;;;;101.43;64.72;;;;;;;;;;5005628;28;20038;-81
2022/02/03 10:29:33;;;;;;;101.28;67.35;;;;;;;;;;5001385;28;20009;-79
2022/02/03 10:31:58;;;;;;;108.53;68.82;;;;;;;;;;4985476;28;20018;-79
2022/02/03 10:34:30;;;;;;;93.17;64.33;;;;;;;;;;4981414;28;20084;-81
2022/02/03 10:39:59;;;;;;;106.32;68.65;;;;;;;;;;4986953;28;20404;-79
2022/02/03 10:42:25;;;;;;;107.90;68.80;;;;;;;;;;4982168;28;20027;-81
2022/02/03 10:50:54;;;;;;;123.05;71.60;;;;;;;;;;4982687;28;20033;-79
2022/02/03 10:56:18;;;;;;;107.35;68.50;;;;;;;;;;4976830;28;20400;-81
2022/02/03 11:07:14;;;;;;;106.68;67.53;;;;;;;;;;4952850;29;20030;-81
2022/02/03 11:12:09;;;;;;;101.85;66.13;;;;;;;;;;4965252;28;20030;-81
2022/02/03 11:14:36;;;;;;;103.90;68.88;;;;;;;;;;4974318;28;20030;-80
2022/02/03 11:17:03;;;;;;;107.47;66.97;;;;;;;;;;4974154;28;20026;-80
2022/02/03 11:19:31;;;;;;;106.72;67.60;;;;;;;;;;4993773;28;20492;-79
2022/02/03 11:22:04;;;;;;;101.43;66.22;;;;;;;;;;4991974;28;20570;-80
2022/02/03 11:24:32;;;;;;;99.97;69.38;;;;;;;;;;4990160;28;20035;-80
2022/02/03 11:32:14;;;;;;;99.40;67.83;;;;;;;;;;4985821;28;20065;-80
2022/02/03 11:40:24;;;;;;;94.53;66.20;;;;;;;;;;4976361;28;20030;-80
2022/02/03 11:45:40;;;;;;;102.18;65.53;;;;;;;;;;4967104;28;20505;-81
2022/02/03 11:48:28;;;;;;;94.70;64.85;;;;;;;;;;4974096;28;20033;-80
2022/02/03 11:51:37;;;;;;;100.88;67.05;;;;;;;;;;4977933;28;20429;-80
2022/02/03 11:57:06;;;;;;;93.63;64.13;;;;;;;;;;4955982;29;20026;-82
2022/02/03 12:02:32;;;;;;;87.17;62.43;;;;;;;;;;4957233;28;20039;-81
2022/02/03 12:07:51;;;;;;;91.55;63.45;;;;;;;;;;4955403;28;20019;-80
2022/02/03 12:10:43;;;;;;;85.95;64.10;;;;;;;;;;4955345;29;20106;-78
2022/02/03 12:19:07;;;;;;;97.07;66.43;;;;;;;;;;4955327;29;20071;-79
2022/02/03 12:21:30;;;;;;;85.03;63.75;;;;;;;;;;4958018;28;20102;-79
2022/02/03 12:24:14;;;;;;;88.10;63.75;;;;;;;;;;4955116;28;20078;-79
2022/02/03 12:26:45;;;;;;;81.97;63.13;;;;;;;;;;4964635;28;20162;-79
2022/02/03 12:29:24;;;;;;;84.38;63.40;;;;;;;;;;4971664;28;20019;-79
2022/02/03 12:42:52;;;;;;;90.07;65.00;;;;;;;;;;4975628;28;20016;-78
2022/02/03 12:45:23;;;;;;;90.43;63.95;;;;;;;;;;4972763;28;20042;-76
2022/02/03 12:47:49;;;;;;;83.28;62.53;;;;;;;;;;4975214;28;20031;-75
2022/02/03 12:50:15;;;;;;;79.90;61.60;;;;;;;;;;4990448;28;20037;-76
2022/02/03 12:52:42;;;;;;;97.55;65.93;;;;;;;;;;4974582;28;20024;-76
2022/02/03 12:55:07;;;;;;;;;;;;;;;;;;4971489;28;20039;-76
2022/02/03 12:57:33;;;;;;;86.97;62.97;;;;;;;;;;4982968;28;19929;-78
2022/02/03 12:59:58;;;;;;;;;;;;;;;;;;4962116;28;20087;-78
2022/02/03 13:02:24;;;;;;;79.18;59.83;;;;;;;;;;4960920;28;19949;-77
2022/02/03 13:04:49;;;;;;;74.93;60.13;;;;;;;;;;4957262;28;20050;-77
2022/02/03 13:07:19;;;;;;;84.60;62.40;;;;;;;;;;4957913;29;20061;-78
2022/02/03 13:09:53;;;;;;;84.15;60.92;;;;;;;;;;4959529;29;20050;-78
2022/02/03 13:12:28;;;;;;;88.72;62.50;;;;;;;;;;4958647;29;20019;-78
2022/02/03 13:14:57;;;;;;;82.97;61.92;;;;;;;;;;4962341;28;20087;-78
2022/02/03 13:17:31;;;;;;;79.40;61.50;;;;;;;;;;4989896;28;20402;-78
2022/02/03 13:20:18;;;;;;;75.15;59.75;;;;;;;;;;4959778;29;20019;-78
2022/02/03 13:22:56;;;;;;;98.63;65.77;;;;;;;;;;4957692;28;20023;-76
2022/02/03 13:25:33;;;;;;;72.15;59.75;;;;;;;;;;4954674;29;20064;-77
2022/02/03 13:28:07;;;;;;;78.10;59.85;;;;;;;;;;4963481;28;20046;-76
2022/02/03 13:33:23;;;;;;;76.53;60.53;;;;;;;;;;4963793;28;20019;-78
2022/02/03 13:36:01;;;;;;;75.10;59.30;;;;;;;;;;4962391;29;20027;-80
2022/02/03 13:38:38;;;;;;;79.03;59.60;;;;;;;;;;4958190;29;20031;-77
2022/02/03 13:41:14;;;;;;;68.97;58.70;;;;;;;;;;4957512;29;20062;-76
2022/02/03 13:43:40;;;;;;;75.55;59.85;;;;;;;;;;4947377;29;20027;-77
2022/02/03 13:46:06;;;;;;;74.78;59.65;;;;;;;;;;4954033;28;20015;-79
2022/02/03 13:48:31;;;;;;;71.43;57.47;;;;;;;;;;4956720;29;20704;-79
2022/02/03 13:50:59;;;;;;;79.27;60.63;;;;;;;;;;4958553;29;20097;-77
2022/02/03 13:53:36;;;;;;;75.47;59.25;;;;;;;;;;4955240;29;20027;-77
2022/02/03 14:21:14;;;;;;;73.63;57.58;;;;;;;;;;4965103;28;20032;-83
2022/02/03 14:29:00;;;;;;;63.42;56.53;;;;;;;;;;4966217;29;20031;-84
2022/02/03 14:31:26;;;;;;;70.00;56.55;;;;;;;;;;4964320;29;20019;-83
2022/02/03 14:34:00;;;;;;;76.80;59.30;;;;;;;;;;4962262;29;20011;-84
2022/02/03 14:36:29;;;;;;;66.82;57.20;;;;;;;;;;4959785;29;20031;-83
2022/02/03 14:39:25;;;;;;;66.22;56.08;;;;;;;;;;4980329;28;20114;-84
2022/02/03 14:45:03;;;;;;;67.85;56.58;;;;;;;;;;4928850;29;20486;-85
2022/02/03 14:47:33;;;;;;;67.63;57.15;;;;;;;;;;4970717;29;20604;-85
2022/02/03 14:50:01;;;;;;;64.03;56.67;;;;;;;;;;4965205;29;20026;-86
2022/02/03 14:52:45;;;;;;;70.22;58.85;;;;;;;;;;4963552;28;20366;-86
2022/02/03 14:58:33;;;;;;;72.60;58.35;;;;;;;;;;4956492;28;20042;-86
2022/02/03 15:04:27;;;;;;;77.72;60.08;;;;;;;;;;4961025;28;20038;-87
2022/02/03 15:07:04;;;;;;;68.35;58.47;;;;;;;;;;4968519;29;20035;-86
2022/02/03 15:15:19;;;;;;;72.15;58.20;;;;;;;;;;4961623;29;20086;-86
2022/02/03 15:21:15;;;;;;;;;;;;;;;;;;;;;
2022/02/03 15:24:39;;;;;;;72.55;57.83;;;;;;;;;;4955176;28;20138;-87
2022/02/03 15:33:23;;;;;;;76.63;58.75;;;;;;;;;;4952196;29;20026;-87
2022/02/03 15:36:28;;;;;;;73.78;58.92;;;;;;;;;;4937849;29;20028;-85
2022/02/03 15:39:18;;;;;;;70.50;56.45;;;;;;;;;;4875165;29;20040;-85
2022/02/03 15:41:44;;;;;;;67.00;56.05;;;;;;;;;;4897132;29;20048;-85
2022/02/03 15:48:02;;;;;;;62.95;55.20;;;;;;;;;;4955360;28;20034;-86
2022/02/03 16:17:57;;;;;;;66.93;56.08;;;;;;;;;;4948933;29;20405;-85
2022/02/03 16:52:16;;;;;;;67.55;57.50;;;;;;;;;;4923530;29;20043;-86
2022/02/03 16:55:00;;;;;;;70.72;57.60;;;;;;;;;;4956671;28;20028;-85
2022/02/03 16:57:50;;;;;;;69.03;58.13;;;;;;;;;;4947084;28;20035;-85
2022/02/03 17:03:40;;;;;;;62.33;55.70;;;;;;;;;;4937917;23;20064;-87
2022/02/03 17:06:05;;;;;;;62.30;55.80;;;;;;;;;;4925164;29;20131;-88
2022/02/03 17:08:31;;;;;;;92.50;63.80;;;;;;;;;;4934108;29;20028;-87
2022/02/03 17:10:56;;;;;;;64.60;57.60;;;;;;;;;;4930254;29;20032;-87
2022/02/03 17:13:21;;;;;;;69.93;58.90;;;;;;;;;;4927714;29;20115;-88
2022/02/03 17:15:46;;;;;;;63.63;56.80;;;;;;;;;;4922290;29;20016;-87
2022/02/03 17:18:13;;;;;;;63.43;56.73;;;;;;;;;;4925961;29;20044;-88
2022/02/03 17:20:40;;;;;;;66.80;57.42;;;;;;;;;;4926737;29;20079;-87
2022/02/03 17:23:08;;;;;;;63.78;56.88;;;;;;;;;;4928034;29;20446;-88
2022/02/03 17:30:34;;;;;;;67.57;56.63;;;;;;;;;;4930999;29;20028;-88
2022/02/03 17:52:49;;;;;;;62.25;55.47;;;;;;;;;;4943370;29;20047;-85
2022/02/03 18:08:34;;;;;;;69.10;58.45;;;;;;;;;;4959455;28;20019;-80
2022/02/03 18:30:10;;;;;;;67.22;57.58;;;;;;;;;;4949871;29;20034;-79
2022/02/03 18:32:50;;;;;;;68.60;58.67;;;;;;;;;;4958268;29;20066;-80
2022/02/03 18:49:37;;;;;;;74.22;59.60;;;;;;;;;;4957120;29;20030;-82
2022/02/03 18:51:41;;;;;;;66.32;58.20;;;;;;;;;;4956702;28;20079;-80
2022/02/03 18:56:58;;;;;;;80.57;61.15;;;;;;;;;;4955759;29;20063;-80
2022/02/03 19:15:55;;;;;;;64.25;56.67;;;;;;;;;;4963334;29;20030;-81
2022/02/03 19:26:36;;;;;;;64.63;57.75;;;;;;;;;;4965187;28;20031;-79
2022/02/03 19:56:11;;;;;;;65.68;57.33;;;;;;;;;;4966055;28;20023;-80
2022/02/03 20:02:07;;;;;;;68.68;59.53;;;;;;;;;;4962661;29;20081;-76
2022/02/03 20:10:35;;;;;;;69.60;59.53;;;;;;;;;;4963597;28;20030;-80
2022/02/03 20:12:55;;;;;;;71.35;60.03;;;;;;;;;;4954702;29;20039;-79
2022/02/03 20:15:22;;;;;;;69.70;59.47;;;;;;;;;;4962591;29;20026;-79
2022/02/03 20:17:48;;;;;;;69.07;58.45;;;;;;;;;;4958111;28;20027;-81
2022/02/03 20:20:13;;;;;;;69.47;59.20;;;;;;;;;;4959247;28;20485;-80
2022/02/03 20:22:39;;;;;;;83.43;61.80;;;;;;;;;;4961257;28;20058;-80
2022/02/03 20:25:06;;;;;;;70.28;61.20;;;;;;;;;;4964903;28;20015;-80
2022/02/03 20:27:31;;;;;;;67.05;58.60;;;;;;;;;;4959781;28;21388;-80
2022/02/03 20:29:57;;;;;;;73.83;61.00;;;;;;;;;;4962840;28;20038;-80
2022/02/03 20:32:22;;;;;;;82.50;61.37;;;;;;;;;;4956889;29;20106;-84
2022/02/03 20:34:47;;;;;;;76.17;60.47;;;;;;;;;;4961544;28;20163;-84
2022/02/03 20:37:15;;;;;;;75.30;60.77;;;;;;;;;;4959856;28;20027;-84
2022/02/03 20:39:40;;;;;;;72.43;59.60;;;;;;;;;;4964022;28;20504;-84
2022/02/03 20:42:07;;;;;;;77.27;60.97;;;;;;;;;;4960308;28;20086;-84
2022/02/03 20:44:32;;;;;;;;;;;;;;;;;;4969181;28;20031;-84
2022/02/03 20:46:57;;;;;;;72.88;59.83;;;;;;;;;;4980095;28;20758;-82
2022/02/03 20:49:23;;;;;;;78.47;62.70;;;;;;;;;;4961601;28;20027;-85
2022/02/03 20:51:48;;;;;;;74.30;61.27;;;;;;;;;;4965327;28;20050;-80
2022/02/03 20:54:15;;;;;;;75.70;59.97;;;;;;;;;;4973611;28;20027;-84
2022/02/03 20:56:43;;;;;;;88.53;64.63;;;;;;;;;;4955438;28;20031;-81
2022/02/03 20:59:11;;;;;;;74.63;60.65;;;;;;;;;;4952246;28;20110;-80
2022/02/03 21:01:38;;;;;;;67.47;60.22;;;;;;;;;;4956284;28;20019;-83
2022/02/03 21:04:12;;;;;;;73.43;61.60;;;;;;;;;;4955782;29;20515;-83
2022/02/03 21:06:37;;;;;;;84.72;64.05;;;;;;;;;;4953410;29;20378;-82
2022/02/03 21:09:05;;;;;;;75.13;61.60;;;;;;;;;;4954045;29;20102;-81
2022/02/03 21:11:30;;;;;;;75.07;60.78;;;;;;;;;;4955067;29;20019;-83
2022/02/03 21:13:56;;;;;;;74.40;60.53;;;;;;;;;;4954540;29;20030;-79
2022/02/03 21:16:21;;;;;;;80.63;62.47;;;;;;;;;;4953346;29;20019;-81
2022/02/03 21:18:47;;;;;;;83.63;64.57;;;;;;;;;;4954280;28;20020;-80
2022/02/03 21:21:12;;;;;;;76.17;61.80;;;;;;;;;;4957028;28;20031;-80
2022/02/03 21:23:38;;;;;;;79.00;62.15;;;;;;;;;;4972165;28;20262;-81
2022/02/03 21:26:06;;;;;;;78.67;62.40;;;;;;;;;;4958969;29;20118;-81
2022/02/03 21:28:34;;;;;;;81.15;62.90;;;;;;;;;;4955902;28;20030;-82
2022/02/03 21:31:00;;;;;;;80.07;63.42;;;;;;;;;;4959764;28;20023;-81
2022/02/03 21:33:32;;;;;;;81.00;63.65;;;;;;;;;;4958221;29;20389;-82
2022/02/03 21:36:00;;;;;;;82.30;62.60;;;;;;;;;;4958423;29;20042;-83
2022/02/03 21:38:25;;;;;;;82.90;64.18;;;;;;;;;;4955922;28;20111;-81
2022/02/03 21:40:51;;;;;;;79.47;63.67;;;;;;;;;;4960703;28;20070;-81
2022/02/03 21:43:16;;;;;;;77.73;62.43;;;;;;;;;;4965877;28;20034;-80
2022/02/03 21:45:41;;;;;;;85.10;63.83;;;;;;;;;;4964596;28;20469;-81
2022/02/03 21:48:07;;;;;;;85.93;63.80;;;;;;;;;;4951204;28;20032;-80
2022/02/03 21:50:35;;;;;;;73.97;62.07;;;;;;;;;;4977617;28;20043;-80
2022/02/03 21:53:04;;;;;;;89.32;64.13;;;;;;;;;;4968970;28;20023;-80
2022/02/03 21:55:33;;;;;;;72.85;60.60;;;;;;;;;;4977594;28;20054;-85
2022/02/03 21:57:58;;;;;;;81.43;62.72;;;;;;;;;;4959920;28;20031;-82
2022/02/03 22:00:23;;;;;;;78.67;62.63;;;;;;;;;;4971061;28;20515;-83
2022/02/03 22:02:49;;;;;;;82.47;61.63;;;;;;;;;;4981588;28;20083;-83
2022/02/03 22:05:14;;;;;;;78.93;62.43;;;;;;;;;;4984741;28;20039;-82
2022/02/03 22:07:41;;;;;;;80.10;61.83;;;;;;;;;;4988228;28;20045;-81
2022/02/03 22:10:10;;;;;;;82.35;63.60;;;;;;;;;;4982032;28;20019;-82
2022/02/03 22:12:36;;;;;;;77.72;63.28;;;;;;;;;;4983906;28;20047;-81
2022/02/03 22:15:03;;;;;;;73.97;61.27;;;;;;;;;;4979177;28;20078;-81
2022/02/03 22:17:29;;;;;;;79.60;63.63;;;;;;;;;;4973050;28;20027;-82
2022/02/03 22:19:55;;;;;;;80.03;62.22;;;;;;;;;;4977155;28;20016;-81
2022/02/03 22:22:48;;;;;;;76.10;61.53;;;;;;;;;;4978147;28;20058;-81
2022/02/03 22:46:14;;;;;;;77.07;61.10;;;;;;;;;;4984375;28;20107;-83
2022/02/03 22:48:39;;;;;;;74.13;61.03;;;;;;;;;;4966828;28;20042;-82
2022/02/03 22:51:05;;;;;;;72.67;59.87;;;;;;;;;;4963051;28;20047;-84
2022/02/03 22:53:35;;;;;;;77.75;61.45;;;;;;;;;;4960034;28;20047;-82
2022/02/03 22:56:05;;;;;;;75.55;61.63;;;;;;;;;;4972584;28;20047;-80
2022/02/03 23:01:15;;;;;;;72.97;61.55;;;;;;;;;;4956657;29;20027;-84
2022/02/03 23:03:40;;;;;;;72.30;60.73;;;;;;;;;;4958061;29;20019;-82
2022/02/03 23:06:06;;;;;;;69.13;59.72;;;;;;;;;;4961313;29;20162;-82
2022/02/03 23:08:51;;;;;;;74.50;60.57;;;;;;;;;;4958619;29;20046;-82
2022/02/03 23:11:35;;;;;;;72.75;61.85;;;;;;;;;;4957828;29;20254;-82
2022/02/03 23:17:02;;;;;;;86.90;63.92;;;;;;;;;;4966847;29;20050;-82
2022/02/03 23:19:45;;;;;;;79.03;62.33;;;;;;;;;;4967987;28;20047;-82
2022/02/03 23:22:11;;;;;;;73.70;60.35;;;;;;;;;;4971616;29;20027;-82
2022/02/03 23:24:37;;;;;;;;;;;;;;;;;;4970626;29;20023;-83
2022/02/03 23:27:24;;;;;;;75.77;61.50;;;;;;;;;;4966748;29;19925;-81
2022/02/03 23:29:49;;;;;;;69.10;61.47;;;;;;;;;;4967740;29;20241;-83
2022/02/03 23:32:15;;;;;;;75.75;60.60;;;;;;;;;;4967064;29;20102;-80
2022/02/03 23:34:43;;;;;;;69.85;59.88;;;;;;;;;;4967611;28;20015;-81
2022/02/03 23:37:08;;;;;;;75.60;61.90;;;;;;;;;;4965796;28;20027;-83
2022/02/03 23:44:50;;;;;;;69.22;60.83;;;;;;;;;;4969057;28;20079;-82
